sensor_id;sensor_type;location;lat;lon;timestamp;temperature;humidity
47338;DHT22;33069;51.970;5.892;2023-11-21T00:01:00;8.70;88.50
47338;DHT22;33069;51.970;5.892;2023-11-21T00:03:49;8.70;88.50
47338;DHT22;33069;51.970;5.892;2023-11-21T00:06:35;8.80;88.50
47338;DHT22;33069;51.970;5.892;2023-11-21T00:09:21;8.80;88.40
47338;DHT22;33069;51.970;5.892;2023-11-21T00:12:10;8.70;88.30
47338;DHT22;33069;51.970;5.892;2023-11-21T00:14:57;8.70;88.40
47338;DHT22;33069;51.970;5.892;2023-11-21T00:17:43;8.70;88.30
47338;DHT22;33069;51.970;5.892;2023-11-21T00:20:29;8.70;88.30
47338;DHT22;33069;51.970;5.892;2023-11-21T00:23:15;8.70;88.30
47338;DHT22;33069;51.970;5.892;2023-11-21T00:26:01;8.70;88.30
47338;DHT22;33069;51.970;5.892;2023-11-21T00:28:47;8.50;88.20
47338;DHT22;33069;51.970;5.892;2023-11-21T00:31:33;8.50;88.20
47338;DHT22;33069;51.970;5.892;2023-11-21T00:34:19;8.50;88.30
47338;DHT22;33069;51.970;5.892;2023-11-21T00:37:05;8.50;88.30
47338;DHT22;33069;51.970;5.892;2023-11-21T00:39:51;8.60;88.30
47338;DHT22;33069;51.970;5.892;2023-11-21T00:42:37;8.50;88.20
47338;DHT22;33069;51.970;5.892;2023-11-21T00:45:23;8.50;88.20
47338;DHT22;33069;51.970;5.892;2023-11-21T00:48:09;8.50;88.20
47338;DHT22;33069;51.970;5.892;2023-11-21T00:50:55;8.40;88.30
47338;DHT22;33069;51.970;5.892;2023-11-21T00:53:42;8.40;88.30
47338;DHT22;33069;51.970;5.892;2023-11-21T00:56:28;8.40;88.40
47338;DHT22;33069;51.970;5.892;2023-11-21T00:59:14;8.40;88.40
47338;DHT22;33069;51.970;5.892;2023-11-21T01:02:00;8.40;88.30
47338;DHT22;33069;51.970;5.892;2023-11-21T01:04:47;8.50;88.40
47338;DHT22;33069;51.970;5.892;2023-11-21T01:07:33;8.50;88.30
47338;DHT22;33069;51.970;5.892;2023-11-21T01:10:19;8.40;88.30
47338;DHT22;33069;51.970;5.892;2023-11-21T01:13:06;8.50;88.50
47338;DHT22;33069;51.970;5.892;2023-11-21T01:15:52;8.60;88.50
47338;DHT22;33069;51.970;5.892;2023-11-21T01:18:38;8.60;88.50
47338;DHT22;33069;51.970;5.892;2023-11-21T01:21:25;8.50;88.60
47338;DHT22;33069;51.970;5.892;2023-11-21T01:24:11;8.60;88.50
47338;DHT22;33069;51.970;5.892;2023-11-21T01:26:57;8.60;88.50
47338;DHT22;33069;51.970;5.892;2023-11-21T01:29:43;8.60;88.50
47338;DHT22;33069;51.970;5.892;2023-11-21T01:32:29;8.60;88.60
47338;DHT22;33069;51.970;5.892;2023-11-21T01:35:15;8.60;88.60
47338;DHT22;33069;51.970;5.892;2023-11-21T01:38:01;8.60;88.60
47338;DHT22;33069;51.970;5.892;2023-11-21T01:40:47;8.70;88.60
47338;DHT22;33069;51.970;5.892;2023-11-21T01:43:33;8.60;88.50
47338;DHT22;33069;51.970;5.892;2023-11-21T01:46:20;8.70;88.60
47338;DHT22;33069;51.970;5.892;2023-11-21T01:49:06;8.50;88.60
47338;DHT22;33069;51.970;5.892;2023-11-21T01:51:55;8.40;88.70
47338;DHT22;33069;51.970;5.892;2023-11-21T01:54:41;8.50;88.80
47338;DHT22;33069;51.970;5.892;2023-11-21T01:57:28;8.40;88.90
47338;DHT22;33069;51.970;5.892;2023-11-21T02:00:15;8.30;88.90
47338;DHT22;33069;51.970;5.892;2023-11-21T02:03:01;8.40;89.20
47338;DHT22;33069;51.970;5.892;2023-11-21T02:05:48;8.40;89.30
47338;DHT22;33069;51.970;5.892;2023-11-21T02:08:34;8.30;89.20
47338;DHT22;33069;51.970;5.892;2023-11-21T02:11:20;8.50;89.30
47338;DHT22;33069;51.970;5.892;2023-11-21T02:14:06;8.50;89.30
47338;DHT22;33069;51.970;5.892;2023-11-21T02:16:55;8.60;89.30
47338;DHT22;33069;51.970;5.892;2023-11-21T02:19:42;8.60;89.20
47338;DHT22;33069;51.970;5.892;2023-11-21T02:22:31;8.60;89.10
47338;DHT22;33069;51.970;5.892;2023-11-21T02:25:18;8.40;89.10
47338;DHT22;33069;51.970;5.892;2023-11-21T02:28:04;8.30;89.20
47338;DHT22;33069;51.970;5.892;2023-11-21T02:30:51;8.30;89.30
47338;DHT22;33069;51.970;5.892;2023-11-21T02:33:41;8.50;89.40
47338;DHT22;33069;51.970;5.892;2023-11-21T02:36:28;8.50;89.40
47338;DHT22;33069;51.970;5.892;2023-11-21T02:39:14;8.50;89.40
47338;DHT22;33069;51.970;5.892;2023-11-21T02:42:00;8.60;89.40
47338;DHT22;33069;51.970;5.892;2023-11-21T02:44:46;8.70;89.30
47338;DHT22;33069;51.970;5.892;2023-11-21T02:47:31;8.50;89.20
47338;DHT22;33069;51.970;5.892;2023-11-21T02:50:17;8.50;89.30
47338;DHT22;33069;51.970;5.892;2023-11-21T02:53:04;8.40;89.30
47338;DHT22;33069;51.970;5.892;2023-11-21T02:55:53;8.40;89.40
47338;DHT22;33069;51.970;5.892;2023-11-21T02:58:42;8.40;89.40
47338;DHT22;33069;51.970;5.892;2023-11-21T03:01:29;8.40;89.50
47338;DHT22;33069;51.970;5.892;2023-11-21T03:04:15;8.40;89.60
47338;DHT22;33069;51.970;5.892;2023-11-21T03:07:03;8.40;89.60
47338;DHT22;33069;51.970;5.892;2023-11-21T03:09:51;8.40;89.70
47338;DHT22;33069;51.970;5.892;2023-11-21T03:12:37;8.30;89.80
47338;DHT22;33069;51.970;5.892;2023-11-21T03:15:23;8.30;89.80
47338;DHT22;33069;51.970;5.892;2023-11-21T03:18:09;8.30;89.80
47338;DHT22;33069;51.970;5.892;2023-11-21T03:20:55;8.30;89.80
47338;DHT22;33069;51.970;5.892;2023-11-21T03:23:41;8.30;89.90
47338;DHT22;33069;51.970;5.892;2023-11-21T03:26:27;8.20;90.00
47338;DHT22;33069;51.970;5.892;2023-11-21T03:29:13;8.20;90.00
47338;DHT22;33069;51.970;5.892;2023-11-21T03:31:59;8.20;90.10
47338;DHT22;33069;51.970;5.892;2023-11-21T03:34:57;8.10;90.20
47338;DHT22;33069;51.970;5.892;2023-11-21T03:37:43;8.20;90.30
47338;DHT22;33069;51.970;5.892;2023-11-21T03:40:29;8.00;90.40
47338;DHT22;33069;51.970;5.892;2023-11-21T03:43:16;8.00;90.40
47338;DHT22;33069;51.970;5.892;2023-11-21T03:46:03;8.00;90.50
47338;DHT22;33069;51.970;5.892;2023-11-21T03:48:49;8.00;90.60
47338;DHT22;33069;51.970;5.892;2023-11-21T03:51:35;8.10;90.60
47338;DHT22;33069;51.970;5.892;2023-11-21T03:54:21;8.10;90.70
47338;DHT22;33069;51.970;5.892;2023-11-21T03:57:07;8.20;90.70
47338;DHT22;33069;51.970;5.892;2023-11-21T03:59:53;8.20;90.70
47338;DHT22;33069;51.970;5.892;2023-11-21T04:02:39;8.10;90.60
47338;DHT22;33069;51.970;5.892;2023-11-21T04:05:26;8.30;90.60
47338;DHT22;33069;51.970;5.892;2023-11-21T04:08:12;8.30;90.60
47338;DHT22;33069;51.970;5.892;2023-11-21T04:10:58;8.30;90.50
47338;DHT22;33069;51.970;5.892;2023-11-21T04:13:44;8.30;90.60
47338;DHT22;33069;51.970;5.892;2023-11-21T04:16:30;8.20;90.50
47338;DHT22;33069;51.970;5.892;2023-11-21T04:19:16;8.10;90.50
47338;DHT22;33069;51.970;5.892;2023-11-21T04:22:02;8.10;90.50
47338;DHT22;33069;51.970;5.892;2023-11-21T04:24:49;8.00;90.40
47338;DHT22;33069;51.970;5.892;2023-11-21T04:27:35;8.20;90.50
47338;DHT22;33069;51.970;5.892;2023-11-21T04:30:21;8.20;90.50
47338;DHT22;33069;51.970;5.892;2023-11-21T04:33:07;8.20;90.50
47338;DHT22;33069;51.970;5.892;2023-11-21T04:35:53;8.10;90.50
47338;DHT22;33069;51.970;5.892;2023-11-21T04:38:39;8.20;90.50
47338;DHT22;33069;51.970;5.892;2023-11-21T04:41:26;8.10;90.50
47338;DHT22;33069;51.970;5.892;2023-11-21T04:44:12;8.10;90.50
47338;DHT22;33069;51.970;5.892;2023-11-21T04:46:58;8.10;90.40
47338;DHT22;33069;51.970;5.892;2023-11-21T04:49:46;8.10;90.40
47338;DHT22;33069;51.970;5.892;2023-11-21T04:52:35;8.10;90.40
47338;DHT22;33069;51.970;5.892;2023-11-21T04:55:21;8.10;90.40
47338;DHT22;33069;51.970;5.892;2023-11-21T04:58:07;8.10;90.40
47338;DHT22;33069;51.970;5.892;2023-11-21T05:00:54;8.10;90.40
47338;DHT22;33069;51.970;5.892;2023-11-21T05:03:41;8.20;90.40
47338;DHT22;33069;51.970;5.892;2023-11-21T05:06:27;8.10;90.50
47338;DHT22;33069;51.970;5.892;2023-11-21T05:09:13;8.20;90.40
47338;DHT22;33069;51.970;5.892;2023-11-21T05:11:59;8.10;90.40
47338;DHT22;33069;51.970;5.892;2023-11-21T05:14:45;8.20;90.40
47338;DHT22;33069;51.970;5.892;2023-11-21T05:17:33;8.20;90.40
47338;DHT22;33069;51.970;5.892;2023-11-21T05:20:20;8.10;90.30
47338;DHT22;33069;51.970;5.892;2023-11-21T05:23:07;8.10;90.30
47338;DHT22;33069;51.970;5.892;2023-11-21T05:25:53;8.20;90.40
47338;DHT22;33069;51.970;5.892;2023-11-21T05:28:39;8.20;90.30
47338;DHT22;33069;51.970;5.892;2023-11-21T05:31:26;8.00;90.30
47338;DHT22;33069;51.970;5.892;2023-11-21T05:34:12;8.10;90.30
47338;DHT22;33069;51.970;5.892;2023-11-21T05:36:58;8.00;90.30
47338;DHT22;33069;51.970;5.892;2023-11-21T05:39:44;8.00;90.40
47338;DHT22;33069;51.970;5.892;2023-11-21T05:42:30;8.00;90.30
47338;DHT22;33069;51.970;5.892;2023-11-21T05:45:16;8.10;90.40
47338;DHT22;33069;51.970;5.892;2023-11-21T05:48:04;8.10;90.40
47338;DHT22;33069;51.970;5.892;2023-11-21T05:50:52;8.10;90.40
47338;DHT22;33069;51.970;5.892;2023-11-21T05:53:38;8.20;90.40
47338;DHT22;33069;51.970;5.892;2023-11-21T05:56:24;8.10;90.40
47338;DHT22;33069;51.970;5.892;2023-11-21T05:59:10;8.20;90.40
47338;DHT22;33069;51.970;5.892;2023-11-21T06:01:56;8.20;90.40
47338;DHT22;33069;51.970;5.892;2023-11-21T06:04:42;8.30;90.40
47338;DHT22;33069;51.970;5.892;2023-11-21T06:07:28;8.20;90.40
47338;DHT22;33069;51.970;5.892;2023-11-21T06:10:15;8.30;90.40
47338;DHT22;33069;51.970;5.892;2023-11-21T06:13:03;8.30;90.40
47338;DHT22;33069;51.970;5.892;2023-11-21T06:15:50;8.50;90.40
47338;DHT22;33069;51.970;5.892;2023-11-21T06:18:36;8.40;90.30
47338;DHT22;33069;51.970;5.892;2023-11-21T06:21:22;8.40;90.30
47338;DHT22;33069;51.970;5.892;2023-11-21T06:24:08;8.40;90.40
47338;DHT22;33069;51.970;5.892;2023-11-21T06:26:54;8.40;90.30
47338;DHT22;33069;51.970;5.892;2023-11-21T06:29:39;8.40;90.30
47338;DHT22;33069;51.970;5.892;2023-11-21T06:32:28;8.40;90.30
47338;DHT22;33069;51.970;5.892;2023-11-21T06:35:15;8.50;90.40
47338;DHT22;33069;51.970;5.892;2023-11-21T06:38:01;8.50;90.30
47338;DHT22;33069;51.970;5.892;2023-11-21T06:40:48;8.60;90.20
47338;DHT22;33069;51.970;5.892;2023-11-21T06:43:34;8.60;90.20
47338;DHT22;33069;51.970;5.892;2023-11-21T06:46:20;8.60;90.20
47338;DHT22;33069;51.970;5.892;2023-11-21T06:49:06;8.50;90.10
47338;DHT22;33069;51.970;5.892;2023-11-21T06:51:52;8.50;90.00
47338;DHT22;33069;51.970;5.892;2023-11-21T06:54:40;8.60;90.10
47338;DHT22;33069;51.970;5.892;2023-11-21T06:57:26;8.40;90.10
47338;DHT22;33069;51.970;5.892;2023-11-21T07:00:15;8.50;90.20
47338;DHT22;33069;51.970;5.892;2023-11-21T07:03:01;8.70;90.20
47338;DHT22;33069;51.970;5.892;2023-11-21T07:05:47;8.70;90.10
47338;DHT22;33069;51.970;5.892;2023-11-21T07:08:33;8.60;90.20
47338;DHT22;33069;51.970;5.892;2023-11-21T07:11:19;8.70;90.20
47338;DHT22;33069;51.970;5.892;2023-11-21T07:14:05;8.80;90.20
47338;DHT22;33069;51.970;5.892;2023-11-21T07:16:53;8.80;90.10
47338;DHT22;33069;51.970;5.892;2023-11-21T07:19:39;8.60;90.00
47338;DHT22;33069;51.970;5.892;2023-11-21T07:22:25;8.70;90.10
47338;DHT22;33069;51.970;5.892;2023-11-21T07:25:11;8.70;90.10
47338;DHT22;33069;51.970;5.892;2023-11-21T07:27:57;8.70;90.10
47338;DHT22;33069;51.970;5.892;2023-11-21T07:30:43;8.70;90.20
47338;DHT22;33069;51.970;5.892;2023-11-21T07:33:29;8.70;90.20
47338;DHT22;33069;51.970;5.892;2023-11-21T07:36:15;8.70;90.20
47338;DHT22;33069;51.970;5.892;2023-11-21T07:39:01;8.70;90.20
47338;DHT22;33069;51.970;5.892;2023-11-21T07:41:48;8.70;90.20
47338;DHT22;33069;51.970;5.892;2023-11-21T07:44:35;8.90;90.30
47338;DHT22;33069;51.970;5.892;2023-11-21T07:47:21;8.80;90.20
47338;DHT22;33069;51.970;5.892;2023-11-21T07:50:08;8.90;90.20
47338;DHT22;33069;51.970;5.892;2023-11-21T07:52:54;8.90;90.20
47338;DHT22;33069;51.970;5.892;2023-11-21T07:55:40;8.90;90.20
47338;DHT22;33069;51.970;5.892;2023-11-21T07:58:26;8.90;90.20
47338;DHT22;33069;51.970;5.892;2023-11-21T08:01:12;8.90;90.20
47338;DHT22;33069;51.970;5.892;2023-11-21T08:03:58;8.90;90.30
47338;DHT22;33069;51.970;5.892;2023-11-21T08:06:49;8.90;90.40
47338;DHT22;33069;51.970;5.892;2023-11-21T08:09:34;8.90;90.40
47338;DHT22;33069;51.970;5.892;2023-11-21T08:12:20;9.00;90.30
47338;DHT22;33069;51.970;5.892;2023-11-21T08:15:07;9.00;90.30
47338;DHT22;33069;51.970;5.892;2023-11-21T08:17:53;9.00;90.20
47338;DHT22;33069;51.970;5.892;2023-11-21T08:20:39;9.20;90.30
47338;DHT22;33069;51.970;5.892;2023-11-21T08:23:25;9.30;90.20
47338;DHT22;33069;51.970;5.892;2023-11-21T08:26:12;9.30;90.10
47338;DHT22;33069;51.970;5.892;2023-11-21T08:28:59;9.30;90.00
47338;DHT22;33069;51.970;5.892;2023-11-21T08:31:45;9.20;89.80
47338;DHT22;33069;51.970;5.892;2023-11-21T08:34:33;9.10;89.80
47338;DHT22;33069;51.970;5.892;2023-11-21T08:37:19;9.20;89.80
47338;DHT22;33069;51.970;5.892;2023-11-21T08:40:06;9.30;89.80
47338;DHT22;33069;51.970;5.892;2023-11-21T08:42:58;9.40;89.80
47338;DHT22;33069;51.970;5.892;2023-11-21T08:45:46;9.30;89.60
47338;DHT22;33069;51.970;5.892;2023-11-21T08:48:32;9.40;89.70
47338;DHT22;33069;51.970;5.892;2023-11-21T08:51:18;9.30;89.70
47338;DHT22;33069;51.970;5.892;2023-11-21T08:54:04;9.40;89.70
47338;DHT22;33069;51.970;5.892;2023-11-21T08:56:54;9.50;89.70
47338;DHT22;33069;51.970;5.892;2023-11-21T08:59:40;9.40;89.60
47338;DHT22;33069;51.970;5.892;2023-11-21T09:02:26;9.50;89.70
47338;DHT22;33069;51.970;5.892;2023-11-21T09:05:13;9.50;89.70
47338;DHT22;33069;51.970;5.892;2023-11-21T09:08:00;9.50;89.60
47338;DHT22;33069;51.970;5.892;2023-11-21T09:10:45;9.60;89.70
47338;DHT22;33069;51.970;5.892;2023-11-21T09:13:33;9.70;89.70
47338;DHT22;33069;51.970;5.892;2023-11-21T09:16:19;9.70;89.60
47338;DHT22;33069;51.970;5.892;2023-11-21T09:19:05;9.50;89.40
47338;DHT22;33069;51.970;5.892;2023-11-21T09:21:51;9.60;89.40
47338;DHT22;33069;51.970;5.892;2023-11-21T09:24:37;9.70;89.40
47338;DHT22;33069;51.970;5.892;2023-11-21T09:27:23;9.50;89.20
47338;DHT22;33069;51.970;5.892;2023-11-21T09:30:09;9.60;89.30
47338;DHT22;33069;51.970;5.892;2023-11-21T09:32:56;9.60;89.30
47338;DHT22;33069;51.970;5.892;2023-11-21T09:35:42;9.70;89.40
47338;DHT22;33069;51.970;5.892;2023-11-21T09:38:29;9.60;89.30
47338;DHT22;33069;51.970;5.892;2023-11-21T09:41:46;9.50;89.30
47338;DHT22;33069;51.970;5.892;2023-11-21T09:48:02;9.50;89.50
47338;DHT22;33069;51.970;5.892;2023-11-21T09:50:49;9.40;89.60
47338;DHT22;33069;51.970;5.892;2023-11-21T09:53:36;9.50;89.80
47338;DHT22;33069;51.970;5.892;2023-11-21T09:56:23;9.50;89.80
47338;DHT22;33069;51.970;5.892;2023-11-21T09:59:14;9.50;89.80
47338;DHT22;33069;51.970;5.892;2023-11-21T10:02:01;9.60;89.90
47338;DHT22;33069;51.970;5.892;2023-11-21T10:04:48;9.80;90.00
47338;DHT22;33069;51.970;5.892;2023-11-21T10:07:34;10.00;90.00
47338;DHT22;33069;51.970;5.892;2023-11-21T10:10:22;10.10;89.90
47338;DHT22;33069;51.970;5.892;2023-11-21T10:13:12;10.30;89.90
47338;DHT22;33069;51.970;5.892;2023-11-21T10:15:58;10.50;89.80
47338;DHT22;33069;51.970;5.892;2023-11-21T10:18:45;10.70;89.70
47338;DHT22;33069;51.970;5.892;2023-11-21T10:21:33;10.60;89.40
47338;DHT22;33069;51.970;5.892;2023-11-21T10:24:19;10.70;89.30
47338;DHT22;33069;51.970;5.892;2023-11-21T10:27:05;10.60;89.10
47338;DHT22;33069;51.970;5.892;2023-11-21T10:29:51;10.60;88.90
47338;DHT22;33069;51.970;5.892;2023-11-21T10:32:40;10.50;88.80
47338;DHT22;33069;51.970;5.892;2023-11-21T10:35:38;10.50;88.70
47338;DHT22;33069;51.970;5.892;2023-11-21T10:38:25;10.60;88.70
47338;DHT22;33069;51.970;5.892;2023-11-21T10:41:13;10.80;88.60
47338;DHT22;33069;51.970;5.892;2023-11-21T10:44:03;10.70;88.50
47338;DHT22;33069;51.970;5.892;2023-11-21T10:46:54;10.90;88.50
47338;DHT22;33069;51.970;5.892;2023-11-21T10:49:41;11.00;88.40
47338;DHT22;33069;51.970;5.892;2023-11-21T10:52:28;11.20;88.20
47338;DHT22;33069;51.970;5.892;2023-11-21T10:55:19;10.70;87.70
47338;DHT22;33069;51.970;5.892;2023-11-21T10:58:07;10.60;87.80
47338;DHT22;33069;51.970;5.892;2023-11-21T11:00:56;10.60;87.90
47338;DHT22;33069;51.970;5.892;2023-11-21T11:03:44;10.80;88.00
47338;DHT22;33069;51.970;5.892;2023-11-21T11:06:30;10.80;87.90
47338;DHT22;33069;51.970;5.892;2023-11-21T11:09:18;10.60;87.80
47338;DHT22;33069;51.970;5.892;2023-11-21T11:12:04;10.40;87.90
47338;DHT22;33069;51.970;5.892;2023-11-21T11:14:51;10.30;88.30
47338;DHT22;33069;51.970;5.892;2023-11-21T11:17:38;10.30;88.60
47338;DHT22;33069;51.970;5.892;2023-11-21T11:20:37;10.10;89.00
47338;DHT22;33069;51.970;5.892;2023-11-21T11:23:53;10.00;89.40
47338;DHT22;33069;51.970;5.892;2023-11-21T11:30:11;9.90;89.80
47338;DHT22;33069;51.970;5.892;2023-11-21T11:33:31;9.80;90.00
47338;DHT22;33069;51.970;5.892;2023-11-21T11:39:35;9.90;90.10
47338;DHT22;33069;51.970;5.892;2023-11-21T11:42:22;9.90;90.10
47338;DHT22;33069;51.970;5.892;2023-11-21T11:45:32;9.90;90.00
47338;DHT22;33069;51.970;5.892;2023-11-21T11:48:21;9.90;90.10
47338;DHT22;33069;51.970;5.892;2023-11-21T11:51:13;9.80;90.10
47338;DHT22;33069;51.970;5.892;2023-11-21T11:54:06;9.80;90.30
47338;DHT22;33069;51.970;5.892;2023-11-21T11:56:52;9.80;90.40
47338;DHT22;33069;51.970;5.892;2023-11-21T12:03:02;9.90;90.40
47338;DHT22;33069;51.970;5.892;2023-11-21T12:05:49;9.90;90.50
47338;DHT22;33069;51.970;5.892;2023-11-21T12:08:38;10.00;90.50
47338;DHT22;33069;51.970;5.892;2023-11-21T12:11:31;10.20;90.40
47338;DHT22;33069;51.970;5.892;2023-11-21T12:14:17;10.10;90.30
47338;DHT22;33069;51.970;5.892;2023-11-21T12:17:03;10.00;90.10
47338;DHT22;33069;51.970;5.892;2023-11-21T12:19:50;10.10;90.10
47338;DHT22;33069;51.970;5.892;2023-11-21T12:22:38;10.10;89.90
47338;DHT22;33069;51.970;5.892;2023-11-21T12:25:31;10.10;89.80
47338;DHT22;33069;51.970;5.892;2023-11-21T12:28:22;10.10;89.60
47338;DHT22;33069;51.970;5.892;2023-11-21T12:31:08;10.00;89.70
47338;DHT22;33069;51.970;5.892;2023-11-21T12:33:55;10.00;89.70
47338;DHT22;33069;51.970;5.892;2023-11-21T12:36:41;10.00;89.70
47338;DHT22;33069;51.970;5.892;2023-11-21T12:39:27;9.80;89.50
47338;DHT22;33069;51.970;5.892;2023-11-21T12:42:14;9.70;89.80
47338;DHT22;33069;51.970;5.892;2023-11-21T12:45:33;9.70;90.00
47338;DHT22;33069;51.970;5.892;2023-11-21T12:48:19;9.70;90.20
47338;DHT22;33069;51.970;5.892;2023-11-21T12:51:12;9.70;90.30
47338;DHT22;33069;51.970;5.892;2023-11-21T12:53:59;9.70;90.40
47338;DHT22;33069;51.970;5.892;2023-11-21T12:56:46;9.60;90.40
47338;DHT22;33069;51.970;5.892;2023-11-21T12:59:35;9.70;90.50
47338;DHT22;33069;51.970;5.892;2023-11-21T13:02:21;9.70;90.50
47338;DHT22;33069;51.970;5.892;2023-11-21T13:05:07;9.80;90.40
47338;DHT22;33069;51.970;5.892;2023-11-21T13:08:07;9.80;90.20
47338;DHT22;33069;51.970;5.892;2023-11-21T13:10:56;9.70;89.80
47338;DHT22;33069;51.970;5.892;2023-11-21T13:13:43;9.80;89.70
47338;DHT22;33069;51.970;5.892;2023-11-21T13:16:29;9.90;89.60
47338;DHT22;33069;51.970;5.892;2023-11-21T13:19:17;9.80;89.10
47338;DHT22;33069;51.970;5.892;2023-11-21T13:22:05;9.80;89.20
47338;DHT22;33069;51.970;5.892;2023-11-21T13:24:51;9.80;89.20
47338;DHT22;33069;51.970;5.892;2023-11-21T13:27:39;9.90;89.20
47338;DHT22;33069;51.970;5.892;2023-11-21T13:30:25;10.00;89.10
47338;DHT22;33069;51.970;5.892;2023-11-21T13:33:19;10.00;89.00
47338;DHT22;33069;51.970;5.892;2023-11-21T13:36:07;10.20;89.00
47338;DHT22;33069;51.970;5.892;2023-11-21T13:38:54;10.30;88.80
47338;DHT22;33069;51.970;5.892;2023-11-21T13:41:40;10.30;88.50
47338;DHT22;33069;51.970;5.892;2023-11-21T13:44:27;10.20;88.30
47338;DHT22;33069;51.970;5.892;2023-11-21T13:47:20;10.30;88.10
47338;DHT22;33069;51.970;5.892;2023-11-21T13:50:06;10.20;87.90
47338;DHT22;33069;51.970;5.892;2023-11-21T13:53:03;10.30;87.80
47338;DHT22;33069;51.970;5.892;2023-11-21T13:56:09;10.20;87.70
47338;DHT22;33069;51.970;5.892;2023-11-21T13:58:55;10.20;87.70
47338;DHT22;33069;51.970;5.892;2023-11-21T14:01:41;10.20;87.70
47338;DHT22;33069;51.970;5.892;2023-11-21T14:04:40;10.10;87.70
47338;DHT22;33069;51.970;5.892;2023-11-21T14:07:40;10.00;87.90
47338;DHT22;33069;51.970;5.892;2023-11-21T14:10:33;10.00;88.10
47338;DHT22;33069;51.970;5.892;2023-11-21T14:13:29;9.70;88.30
47338;DHT22;33069;51.970;5.892;2023-11-21T14:16:15;9.50;88.60
47338;DHT22;33069;51.970;5.892;2023-11-21T14:19:02;9.40;88.70
47338;DHT22;33069;51.970;5.892;2023-11-21T14:21:59;9.30;88.60
47338;DHT22;33069;51.970;5.892;2023-11-21T14:24:45;9.20;88.50
47338;DHT22;33069;51.970;5.892;2023-11-21T14:27:32;9.20;88.50
47338;DHT22;33069;51.970;5.892;2023-11-21T14:30:19;9.20;88.50
47338;DHT22;33069;51.970;5.892;2023-11-21T14:33:08;9.30;88.50
47338;DHT22;33069;51.970;5.892;2023-11-21T14:35:57;9.20;88.30
47338;DHT22;33069;51.970;5.892;2023-11-21T14:38:43;9.30;88.30
47338;DHT22;33069;51.970;5.892;2023-11-21T14:41:29;9.30;88.20
47338;DHT22;33069;51.970;5.892;2023-11-21T14:44:15;9.50;88.10
47338;DHT22;33069;51.970;5.892;2023-11-21T14:47:01;9.30;88.10
47338;DHT22;33069;51.970;5.892;2023-11-21T14:49:52;9.30;88.10
47338;DHT22;33069;51.970;5.892;2023-11-21T14:52:42;9.20;88.00
47338;DHT22;33069;51.970;5.892;2023-11-21T14:55:41;9.20;88.00
47338;DHT22;33069;51.970;5.892;2023-11-21T14:58:36;9.10;88.10
47338;DHT22;33069;51.970;5.892;2023-11-21T15:01:24;9.10;88.00
47338;DHT22;33069;51.970;5.892;2023-11-21T15:04:30;9.10;88.00
47338;DHT22;33069;51.970;5.892;2023-11-21T15:07:21;9.20;88.00
47338;DHT22;33069;51.970;5.892;2023-11-21T15:10:10;9.20;88.00
47338;DHT22;33069;51.970;5.892;2023-11-21T15:13:00;9.10;88.00
47338;DHT22;33069;51.970;5.892;2023-11-21T15:15:48;8.80;88.00
47338;DHT22;33069;51.970;5.892;2023-11-21T15:18:34;8.80;88.30
47338;DHT22;33069;51.970;5.892;2023-11-21T15:21:21;8.70;88.30
47338;DHT22;33069;51.970;5.892;2023-11-21T15:24:08;8.70;88.40
47338;DHT22;33069;51.970;5.892;2023-11-21T15:26:54;8.70;88.50
47338;DHT22;33069;51.970;5.892;2023-11-21T15:29:40;8.50;88.30
47338;DHT22;33069;51.970;5.892;2023-11-21T15:32:26;8.50;88.20
47338;DHT22;33069;51.970;5.892;2023-11-21T15:35:12;8.50;88.10
47338;DHT22;33069;51.970;5.892;2023-11-21T15:38:00;8.60;87.90
47338;DHT22;33069;51.970;5.892;2023-11-21T15:40:46;8.40;87.30
47338;DHT22;33069;51.970;5.892;2023-11-21T15:43:32;8.30;86.90
47338;DHT22;33069;51.970;5.892;2023-11-21T15:46:18;8.40;87.00
47338;DHT22;33069;51.970;5.892;2023-11-21T15:49:05;8.40;86.70
47338;DHT22;33069;51.970;5.892;2023-11-21T15:51:57;8.40;86.70
47338;DHT22;33069;51.970;5.892;2023-11-21T15:54:45;8.20;86.20
47338;DHT22;33069;51.970;5.892;2023-11-21T15:57:34;8.10;86.10
47338;DHT22;33069;51.970;5.892;2023-11-21T16:00:20;8.10;86.10
47338;DHT22;33069;51.970;5.892;2023-11-21T16:03:08;8.10;86.10
47338;DHT22;33069;51.970;5.892;2023-11-21T16:05:55;8.00;85.90
47338;DHT22;33069;51.970;5.892;2023-11-21T16:08:41;8.00;85.90
47338;DHT22;33069;51.970;5.892;2023-11-21T16:11:27;8.00;86.00
47338;DHT22;33069;51.970;5.892;2023-11-21T16:14:15;7.90;86.00
47338;DHT22;33069;51.970;5.892;2023-11-21T16:17:05;7.80;86.00
47338;DHT22;33069;51.970;5.892;2023-11-21T16:19:53;7.80;85.90
47338;DHT22;33069;51.970;5.892;2023-11-21T16:22:41;7.70;85.90
47338;DHT22;33069;51.970;5.892;2023-11-21T16:25:27;7.70;85.90
47338;DHT22;33069;51.970;5.892;2023-11-21T16:28:13;7.60;86.00
47338;DHT22;33069;51.970;5.892;2023-11-21T16:30:59;7.60;85.90
47338;DHT22;33069;51.970;5.892;2023-11-21T16:33:45;7.50;85.90
47338;DHT22;33069;51.970;5.892;2023-11-21T16:36:31;7.50;85.80
47338;DHT22;33069;51.970;5.892;2023-11-21T16:39:18;7.40;85.90
47338;DHT22;33069;51.970;5.892;2023-11-21T16:42:08;7.40;85.90
47338;DHT22;33069;51.970;5.892;2023-11-21T16:44:54;7.30;85.90
47338;DHT22;33069;51.970;5.892;2023-11-21T16:47:42;7.30;85.90
47338;DHT22;33069;51.970;5.892;2023-11-21T16:50:29;7.30;85.80
47338;DHT22;33069;51.970;5.892;2023-11-21T16:53:15;7.30;85.60
47338;DHT22;33069;51.970;5.892;2023-11-21T16:56:00;7.20;85.50
47338;DHT22;33069;51.970;5.892;2023-11-21T16:58:46;7.20;85.50
47338;DHT22;33069;51.970;5.892;2023-11-21T17:01:32;7.20;85.50
47338;DHT22;33069;51.970;5.892;2023-11-21T17:04:19;7.10;85.50
47338;DHT22;33069;51.970;5.892;2023-11-21T17:07:05;7.10;85.50
47338;DHT22;33069;51.970;5.892;2023-11-21T17:09:54;7.10;85.40
47338;DHT22;33069;51.970;5.892;2023-11-21T17:12:40;7.10;85.40
47338;DHT22;33069;51.970;5.892;2023-11-21T17:15:26;7.00;85.40
47338;DHT22;33069;51.970;5.892;2023-11-21T17:18:13;7.00;85.30
47338;DHT22;33069;51.970;5.892;2023-11-21T17:20:59;7.00;85.30
47338;DHT22;33069;51.970;5.892;2023-11-21T17:23:44;7.00;85.20
47338;DHT22;33069;51.970;5.892;2023-11-21T17:26:31;7.00;85.30
47338;DHT22;33069;51.970;5.892;2023-11-21T17:29:17;7.00;85.20
47338;DHT22;33069;51.970;5.892;2023-11-21T17:32:03;7.00;85.30
47338;DHT22;33069;51.970;5.892;2023-11-21T17:34:50;6.90;85.40
47338;DHT22;33069;51.970;5.892;2023-11-21T17:37:36;7.00;85.30
47338;DHT22;33069;51.970;5.892;2023-11-21T17:40:22;7.10;85.20
47338;DHT22;33069;51.970;5.892;2023-11-21T17:43:08;7.00;85.10
47338;DHT22;33069;51.970;5.892;2023-11-21T17:45:56;7.10;85.00
47338;DHT22;33069;51.970;5.892;2023-11-21T17:48:42;7.10;84.90
47338;DHT22;33069;51.970;5.892;2023-11-21T17:51:28;7.10;84.50
47338;DHT22;33069;51.970;5.892;2023-11-21T17:54:14;7.10;84.50
47338;DHT22;33069;51.970;5.892;2023-11-21T17:57:00;7.10;84.40
47338;DHT22;33069;51.970;5.892;2023-11-21T17:59:46;7.20;84.30
47338;DHT22;33069;51.970;5.892;2023-11-21T18:02:36;7.20;84.30
47338;DHT22;33069;51.970;5.892;2023-11-21T18:05:22;7.20;84.20
47338;DHT22;33069;51.970;5.892;2023-11-21T18:08:09;7.20;84.40